Maple Falls, WA (98266)

12:13 PM PDT on September 23, 2014 (GMT -0700)
Silver Lake Rd (2) | Change Station
CLOSE
Current Station
Personal Weather Station
Location: Maple Falls, WA
Elevation: 670 ft
Nearby Weather Stations

Elev 670 ft 48.92 °N, 122.09 °W | Updated 2 seconds ago

Overcast
Overcast
61.8 °F
Feels Like 61.8 °F
N
0.0
Wind Variable Wind from ENE
Gusts 0.0 mph

Today
High -- | Low -- °F
--% Chance of Precip.
Yesterday
High -- | Low -- °F
Precip. -- in
6:56 AM 7:04 PM
Waning Crescent, 0% visible
Pressure 29.83 in
Visibility 10.0 miles
Clouds Few 7000 ft
Overcast 10000 ft
Dew Point 60 °F
Humidity 95%
Rainfall 0.01 in
Snow Depth 0 in , 0 in , 0 in
UV 1 out of 12
Pollen .40 out of 12
PM2.5 Good
Flu Activity Not available.
METAR KBLI 231853Z 00000KT 10SM FEW070 OVC100 19/15 A2981 RMK AO2 RAB30E43 SLP099 P0000 T01940150

More Conditions Fewer Conditions

Pressure 29.83 in
Visibility 10.0 miles
Clouds Few 7000 ft
Overcast 10000 ft
Dew Point 60 °F
Humidity 95%
Rainfall 0.01 in
Snow Depth 0 in , 0 in , 0 in
UV 1 out of 12
Pollen .40 out of 12
PM2.5 Good
Flu Activity Not available.
METAR KBLI 231853Z 00000KT 10SM FEW070 OVC100 19/15 A2981 RMK AO2 RAB30E43 SLP099 P0000 T01940150

More Conditions Fewer Conditions

10-Day Weather Forecast

Almanac

Astronomy

Sep. 23, 2014 Rise Set
Actual Time 6:56 AM PDT 7:04 PM PDT
Civil Twilight 6:25 AM PDT 7:35 PM PDT
Nautical Twilight 5:48 AM PDT 8:12 PM PDT
Astronomical Twilight 5:09 AM PDT 8:50 PM PDT
Moon 6:25 AM PDT 6:44 PM PDT
Length of Visible Light 13h 10m
Length of Day
12h 07m
Tomorrow will be 3m 35s shorter.
Waning Crescent, 0% of the Moon is Illuminated
Today
Waning Crescent
Sep 24
New
Oct 1
First Quarter
Oct 8
Full
Oct 15
Last Quarter

Today's Extremes

State Highs State Lows

Community

WunderPhotos

Upload Photos

1,755,783 photos uploaded!

Nearby

Air Quality

  Air Quality AQ Index Pollutant
Yesterday Good
PM2.5
Current Good
PM2.5
Tuesday Good
OZONE
Tuesday Good
PM2.5
Wednesday Good
PM2.5
Thursday Good
PM2.5
Friday Good
PM2.5
Saturday Good
PM2.5

Snow Depth

Station Depth Elevation
June Lake 0 in 3340 ft
Pigtail Peak 0 in 5900 ft
Fish Lake 0 in 3371 ft
Stevens Pass 0 in 4070 ft
Sasse Ridge 0 in 4200 ft

Earthquake Activity

City Distance Mag. Time & Date
No recent earthquake activity has been reported nearby.
Minimum magnitude displayed is 2.5.

Coastal Water Temperatures

Place Temperature
Port Townsend, WA 53.1 °F
Friday Harbor, WA 52.0 °F
Port Angeles, WA 52.0 °F

Nearby Weather Stations